Time;durP1;ratioP1;P1;durP2;ratioP2;P2;SDS_P1;SDS_P2;PMS_P1;PMS_P2;Temp;Humidity;BMP_temperature;BMP_pressure;BME280_temperature;BME280_humidity;BME280_pressure;Samples;Min_cycle;Max_cycle;Signal;HPM_P1;HPM_P2
2022/03/22 00:01:13;;;;;;;;;;;1.40;75.60;;;-0.01;71.55;98036.16;4035590;34;19909;-84
2022/03/22 00:03:45;;;;;;;;;;;1.30;75.60;;;-0.01;71.77;98038.84;4019614;34;20245;-84
2022/03/22 00:06:13;;;;;;;;;;;1.30;75.60;;;-0.02;71.70;98033.63;4039311;34;20196;-84
2022/03/22 00:08:43;;;;;;;;;;;1.30;75.60;;;-0.01;71.66;98038.00;4062005;34;20200;-84
2022/03/22 00:11:12;;;;;;;;;;;1.40;75.50;;;-0.02;71.55;98037.16;4039339;34;20211;-84
2022/03/22 00:13:43;;;;;;;;;;;1.30;75.40;;;-0.02;71.75;98034.47;4034813;34;19904;-83
2022/03/22 00:16:12;;;;;;;;;;;1.30;75.40;;;-0.02;71.22;98034.47;4012600;34;20210;-85
2022/03/22 00:18:40;;;;;;;;;;;1.30;75.40;;;-0.02;71.34;98039.84;4013735;34;19912;-84
2022/03/22 00:21:10;;;;;;;;;;;1.30;75.40;;;-0.01;71.58;98038.00;4031805;34;20229;-84
2022/03/22 00:23:40;;;;;;;;;;;1.40;75.40;;;0.00;71.52;98042.41;4029155;34;20197;-84
2022/03/22 00:26:09;;;;;;;;;;;1.30;75.40;;;-0.01;71.61;98036.16;4030125;34;19904;-84
2022/03/22 00:28:37;;;;;;;;;;;1.30;75.40;;;-0.03;71.21;98027.38;4030059;34;20734;-85
2022/03/22 00:31:07;;;;;;;;;;;1.30;75.40;;;-0.03;71.49;98027.38;4004544;34;19904;-84
2022/03/22 00:33:35;;;;;;;;;;;1.30;75.30;;;-0.02;71.06;98028.25;4026234;34;20204;-84
2022/03/22 00:36:05;;;;;;;;;;;1.30;75.20;;;-0.04;71.34;98028.38;4004024;34;20598;-85
2022/03/22 00:38:35;;;;;;;;;;;1.30;75.10;;;-0.02;71.29;98045.22;4003589;34;19905;-84
2022/03/22 00:41:03;;;;;;;;;;;1.30;75.20;;;-0.03;71.22;98038.16;4024381;34;20237;-84
2022/03/22 00:43:34;;;;;;;;;;;1.30;75.10;;;-0.03;71.31;98040.84;4003667;34;19920;-84
2022/03/22 00:46:03;;;;;;;;;;;1.30;75.20;;;-0.04;70.98;98041.00;4003630;34;19915;-85
2022/03/22 00:48:31;;;;;;;;;;;1.30;75.10;;;-0.04;71.08;98041.00;4003182;34;20193;-84
2022/03/22 00:51:00;;;;;;;;;;;1.30;74.90;;;-0.04;71.22;98036.47;4026222;34;19911;-84
2022/03/22 00:53:28;;;;;;;;;;;1.30;75.00;;;-0.06;70.89;98033.06;4025994;34;20199;-83
2022/03/22 00:56:01;;;;;;;;;;;1.30;74.90;;;-0.04;71.21;98035.63;4025970;34;20232;-83
2022/03/22 00:58:30;;;;;;;;;;;1.30;75.10;;;-0.05;70.98;98028.56;4003279;34;19906;-84
2022/03/22 01:00:59;;;;;;;;;;;1.30;75.10;;;-0.06;71.14;98035.75;4003969;34;20207;-84
2022/03/22 01:03:28;;;;;;;;;;;1.30;75.10;;;-0.05;70.75;98034.75;4026674;34;19904;-84
2022/03/22 01:05:59;;;;;;;;;;;1.30;75.00;;;-0.05;71.15;98028.56;4030981;34;20223;-83
2022/03/22 01:08:29;;;;;;;;;;;1.30;75.10;;;-0.04;70.73;98023.00;4031762;34;19990;-84
2022/03/22 01:10:59;;;;;;;;;;;1.30;74.90;;;-0.06;70.77;98025.00;4011280;34;20228;-84
2022/03/22 01:13:28;;;;;;;;;;;1.30;74.90;;;-0.06;71.07;98011.53;4034376;34;20208;-84
2022/03/22 01:15:57;;;;;;;;;;;1.30;74.90;;;-0.08;71.17;98027.03;4033362;34;19912;-84
2022/03/22 01:18:25;;;;;;;;;;;1.30;75.00;;;-0.07;70.80;98026.03;4012591;34;20097;-84
2022/03/22 01:20:54;;;;;;;;;;;1.30;74.90;;;-0.07;70.46;98026.03;4035147;34;20264;-84
2022/03/22 01:23:23;;;;;;;;;;;1.30;74.90;;;-0.08;70.88;98013.56;4035098;34;20224;-84
2022/03/22 01:25:52;;;;;;;;;;;1.30;74.90;;;-0.07;71.22;98020.66;4014703;34;20202;-84
2022/03/22 01:28:22;;;;;;;;;;;1.30;75.10;;;-0.07;71.03;98017.94;4012345;34;19904;-84
2022/03/22 01:30:51;;;;;;;;;;;1.30;74.80;;;-0.07;71.10;98026.03;4012812;34;19916;-84
2022/03/22 01:33:19;;;;;;;;;;;1.30;75.00;;;-0.07;70.82;98012.56;4012948;34;20514;-83
2022/03/22 01:35:48;;;;;;;;;;;1.30;74.90;;;-0.07;70.64;98015.25;4012833;34;20043;-83
2022/03/22 01:38:16;;;;;;;;;;;1.30;75.00;;;-0.08;70.89;98018.94;4033626;34;20158;-84
2022/03/22 01:40:45;;;;;;;;;;;1.30;75.00;;;-0.07;71.23;98017.94;4012527;34;20236;-84
2022/03/22 01:43:15;;;;;;;;;;;1.30;75.10;;;-0.07;71.31;98009.00;4012373;34;19904;-83
2022/03/22 01:45:46;;;;;;;;;;;1.30;75.20;;;-0.07;71.03;98015.25;4012445;34;20219;-84
2022/03/22 01:48:15;;;;;;;;;;;1.30;75.20;;;-0.08;71.30;98018.94;4012276;34;19912;-84
2022/03/22 01:50:44;;;;;;;;;;;1.30;75.10;;;-0.09;71.15;98009.19;4034699;34;20205;-84
2022/03/22 01:53:12;;;;;;;;;;;1.30;75.00;;;-0.09;70.91;98003.81;4033769;34;19905;-84
2022/03/22 01:55:41;;;;;;;;;;;1.30;74.80;;;-0.09;71.22;98006.50;4019381;34;20200;-84
2022/03/22 01:58:10;;;;;;;;;;;1.30;75.10;;;-0.09;71.04;98009.19;4059615;34;20202;-83
2022/03/22 02:00:39;;;;;;;;;;;1.30;75.10;;;-0.09;70.68;98011.88;4038640;34;19904;-83
2022/03/22 02:05:56;;;;;;;;;;;1.30;74.80;;;-0.08;70.68;98012.72;4035749;34;20205;-84
2022/03/22 02:08:28;;;;;;;;;;;1.30;74.90;;;-0.09;71.30;98011.00;4058618;34;20590;-84
2022/03/22 02:10:58;;;;;;;;;;;1.30;74.90;;;-0.09;71.14;98011.88;4039093;34;19911;-84
2022/03/22 02:13:27;;;;;;;;;;;1.30;75.00;;;-0.10;71.25;98015.56;4036950;34;20563;-84
2022/03/22 02:15:58;;;;;;;;;;;1.30;75.00;;;-0.09;71.15;98014.56;4038364;34;19926;-83
2022/03/22 02:18:28;;;;;;;;;;;1.30;75.20;;;-0.10;70.98;98015.56;4060372;34;20629;-84
2022/03/22 02:20:56;;;;;;;;;;;1.30;75.10;;;-0.10;70.99;98009.31;4040088;34;19904;-84
2022/03/22 02:23:49;;;;;;;;;;;1.20;74.90;;;-0.11;70.99;98018.41;4062568;34;20623;-84
2022/03/22 02:26:18;;;;;;;;;;;1.20;75.10;;;-0.12;70.75;98012.19;4032100;34;19959;-84
2022/03/22 02:28:46;;;;;;;;;;;1.30;75.10;;;-0.12;70.97;98014.88;4013900;34;20218;-83
2022/03/22 02:31:15;;;;;;;;;;;1.20;74.80;;;-0.11;70.62;98008.50;4019621;34;20212;-83
2022/03/22 02:33:43;;;;;;;;;;;1.20;75.00;;;-0.12;71.13;98005.94;4036837;34;20104;-83
2022/03/22 02:36:12;;;;;;;;;;;1.20;74.90;;;-0.12;70.89;98011.31;4059777;34;20238;-83
2022/03/22 02:38:42;;;;;;;;;;;1.20;75.00;;;-0.12;70.80;98005.94;4036020;34;19904;-83
2022/03/22 02:41:16;;;;;;;;;;;1.20;74.80;;;-0.13;70.92;98005.09;4058824;34;19904;-83
2022/03/22 02:43:44;;;;;;;;;;;1.20;75.00;;;-0.13;70.94;98004.28;4036206;34;20199;-82
2022/03/22 02:46:14;;;;;;;;;;;1.20;74.90;;;-0.14;71.03;98002.59;4079877;34;20229;-83
2022/03/22 02:48:42;;;;;;;;;;;1.20;75.00;;;-0.13;71.07;98005.09;4036816;34;20167;-83
2022/03/22 02:51:11;;;;;;;;;;;1.20;75.00;;;-0.13;70.93;98007.81;4060837;34;20216;-82
2022/03/22 02:53:40;;;;;;;;;;;1.20;75.00;;;-0.14;70.96;98003.41;4060210;34;19911;-83
2022/03/22 02:56:10;;;;;;;;;;;1.20;74.80;;;-0.13;71.08;98010.50;4060830;34;20216;-83
2022/03/22 02:58:39;;;;;;;;;;;1.20;74.90;;;-0.12;71.26;98016.72;4061829;34;20236;-82
2022/03/22 03:01:07;;;;;;;;;;;1.20;75.00;;;-0.13;71.10;98015.03;4039051;34;20223;-83
2022/03/22 03:03:36;;;;;;;;;;;1.20;75.00;;;-0.13;71.31;98005.09;4012288;34;20197;-82
2022/03/22 03:06:06;;;;;;;;;;;1.20;75.00;;;-0.15;71.00;98007.09;4034313;34;19909;-82
2022/03/22 03:08:34;;;;;;;;;;;1.20;75.10;;;-0.13;71.02;98010.50;4034176;34;19916;-82
2022/03/22 03:11:03;;;;;;;;;;;1.20;75.10;;;-0.14;71.09;98019.56;4034262;34;20215;-82
2022/03/22 03:16:16;;;;;;;;;;;1.20;74.90;;;-0.13;70.83;98009.66;4006931;34;20227;-82
2022/03/22 03:18:44;;;;;;;;;;;1.20;74.90;;;-0.15;70.80;98015.19;4003526;34;20229;-83
2022/03/22 03:21:13;;;;;;;;;;;1.20;74.90;;;-0.14;71.12;98010.66;4025481;34;19905;-82
2022/03/22 03:23:41;;;;;;;;;;;1.20;75.10;;;-0.14;71.23;98006.09;4004142;34;20200;-82
2022/03/22 03:26:10;;;;;;;;;;;1.20;75.10;;;-0.15;71.03;98004.41;4027710;34;20081;-82
2022/03/22 03:28:40;;;;;;;;;;;1.20;75.00;;;-0.16;71.35;98006.28;4027241;34;20200;-82
2022/03/22 03:31:08;;;;;;;;;;;1.20;75.00;;;-0.17;71.69;98001.03;4004468;34;20218;-82
2022/03/22 03:33:37;;;;;;;;;;;1.20;75.20;;;-0.16;71.32;98006.28;4003005;34;19905;-82
2022/03/22 03:36:06;;;;;;;;;;;1.20;75.50;;;-0.17;70.94;98009.97;4002414;34;20214;-82
2022/03/22 03:38:41;;;;;;;;;;;1.20;75.10;;;-0.17;71.09;98011.81;4023782;34;20227;-82
2022/03/22 03:43:57;;;;;;;;;;;1.20;75.00;;;-0.17;71.24;98006.41;4001961;34;20225;-82
2022/03/22 03:49:13;;;;;;;;;;;1.20;75.20;;;-0.18;71.45;98002.91;4001693;34;20097;-82
2022/03/22 03:51:42;;;;;;;;;;;1.20;75.40;;;-0.17;71.16;98004.59;4002885;34;20213;-82
2022/03/22 03:54:10;;;;;;;;;;;1.20;75.20;;;-0.17;71.23;98003.72;4024647;34;20528;-82
2022/03/22 03:56:39;;;;;;;;;;;1.20;75.10;;;-0.18;71.34;98005.59;4003914;34;19912;-82
2022/03/22 03:59:08;;;;;;;;;;;1.20;75.20;;;-0.17;71.35;98006.41;4004930;34;20495;-82
2022/03/22 04:01:37;;;;;;;;;;;1.10;75.20;;;-0.18;71.16;98002.91;4027087;34;20239;-82
2022/03/22 04:04:06;;;;;;;;;;;1.20;75.20;;;-0.18;71.84;98012.81;4008193;34;19915;-83
2022/03/22 04:06:34;;;;;;;;;;;1.20;75.60;;;-0.17;71.25;98003.72;4035161;34;20222;-82
2022/03/22 04:09:03;;;;;;;;;;;1.20;75.30;;;-0.18;71.21;98013.66;4010603;34;20242;-82
2022/03/22 04:11:32;;;;;;;;;;;1.20;75.50;;;-0.19;71.13;98011.09;4007475;34;20107;-82
2022/03/22 04:14:00;;;;;;;;;;;1.20;75.30;;;-0.18;71.40;98010.09;4026603;34;20226;-82
2022/03/22 04:16:31;;;;;;;;;;;1.20;75.30;;;-0.19;71.33;98011.97;4006325;34;20090;-82
2022/03/22 04:19:00;;;;;;;;;;;1.20;75.40;;;-0.18;71.30;98015.50;4031619;34;20247;-82
2022/03/22 04:21:29;;;;;;;;;;;1.20;75.50;;;-0.19;71.81;98019.19;4010492;34;20620;-81
2022/03/22 04:23:58;;;;;;;;;;;1.20;75.80;;;-0.19;71.57;98019.19;4025955;34;20115;-82
2022/03/22 04:26:27;;;;;;;;;;;1.20;75.50;;;-0.19;71.24;98021.88;4058338;34;20226;-82
2022/03/22 04:34:44;;;;;;;;;;;1.20;75.20;;;-0.19;71.39;98027.25;3988567;34;20328;-82
2022/03/22 04:37:13;;;;;;;;;;;1.20;75.30;;;-0.18;71.38;98031.63;4009539;34;20206;-82
2022/03/22 04:39:43;;;;;;;;;;;1.20;75.20;;;-0.11;71.66;98030.03;4022651;34;20205;-82
2022/03/22 04:42:13;;;;;;;;;;;1.30;75.50;;;-0.04;71.79;98025.69;4032487;34;19904;-81
2022/03/22 04:44:42;;;;;;;;;;;1.40;75.70;;;0.06;71.43;98028.28;4010545;34;19912;-82
2022/03/22 04:47:12;;;;;;;;;;;1.50;74.90;;;0.21;70.62;98027.69;4031598;34;20213;-81
2022/03/22 04:49:41;;;;;;;;;;;1.60;74.20;;;0.37;69.95;98027.81;4030880;34;19904;-82
2022/03/22 04:57:41;;;;;;;;;;;2.20;72.00;;;0.95;67.56;98029.91;4060783;34;20115;-82
2022/03/22 05:00:12;;;;;;;;;;;2.30;71.20;;;1.03;67.09;98033.44;4038653;34;20202;-83
2022/03/22 05:02:42;;;;;;;;;;;2.30;70.70;;;1.09;66.78;98026.56;4060661;34;20219;-82
2022/03/22 05:05:11;;;;;;;;;;;2.40;70.30;;;1.11;66.76;98035.31;4060459;34;20218;-81
2022/03/22 05:07:39;;;;;;;;;;;2.40;70.30;;;1.13;66.64;98035.16;4038022;34;19911;-82
2022/03/22 05:10:10;;;;;;;;;;;2.40;70.10;;;1.16;67.27;98034.84;4061112;34;19904;-83
2022/03/22 05:12:41;;;;;;;;;;;2.40;70.50;;;1.19;67.67;98035.34;4038557;34;20213;-82
2022/03/22 05:15:10;;;;;;;;;;;2.50;71.00;;;1.23;67.62;98031.28;4061428;34;19904;-82
2022/03/22 05:17:39;;;;;;;;;;;2.50;71.40;;;1.28;68.13;98033.50;4060198;34;20210;-82
2022/03/22 05:20:11;;;;;;;;;;;2.60;71.90;;;1.32;68.17;98025.94;4060664;34;19904;-82
2022/03/22 05:22:40;;;;;;;;;;;2.60;72.10;;;1.37;68.46;98037.03;4060525;34;20272;-82
2022/03/22 05:25:10;;;;;;;;;;;2.70;72.30;;;1.43;68.46;98032.84;4038056;34;19912;-81
2022/03/22 05:27:38;;;;;;;;;;;2.80;72.10;;;1.50;68.37;98026.59;4035691;34;20192;-81
2022/03/22 05:30:08;;;;;;;;;;;2.90;71.80;;;1.61;68.18;98036.25;4040281;34;19931;-81
2022/03/22 05:32:37;;;;;;;;;;;3.10;71.50;;;1.76;67.69;98033.69;4009865;34;20235;-82
2022/03/22 05:35:06;;;;;;;;;;;3.40;70.70;;;1.98;67.23;98031.34;4031327;34;20219;-82
2022/03/22 05:37:36;;;;;;;;;;;3.70;69.60;;;2.21;66.17;98030.63;4032190;34;20198;-82
2022/03/22 05:40:07;;;;;;;;;;;4.10;68.40;;;2.48;65.82;98031.25;4033543;34;20286;-82
2022/03/22 05:42:38;;;;;;;;;;;4.40;66.90;;;2.76;64.48;98024.38;4011504;34;20211;-83
2022/03/22 05:45:10;;;;;;;;;;;4.90;65.40;;;3.10;63.99;98026.91;4012693;34;19915;-82
2022/03/22 05:47:39;;;;;;;;;;;5.20;63.70;;;3.43;62.83;98024.00;4032914;34;19905;-83
2022/03/22 05:50:09;;;;;;;;;;;5.70;62.20;;;3.72;61.24;98025.16;4033538;34;20203;-83
2022/03/22 05:52:44;;;;;;;;;;;6.00;60.60;;;3.96;60.69;98027.66;4032353;34;20089;-83
2022/03/22 05:55:13;;;;;;;;;;;6.40;59.40;;;4.14;59.85;98027.31;4033152;34;20213;-83
2022/03/22 05:57:42;;;;;;;;;;;6.60;58.30;;;4.28;59.14;98024.81;4032102;34;19904;-83
2022/03/22 06:00:12;;;;;;;;;;;6.80;57.40;;;4.36;59.06;98034.72;4010220;34;20207;-83
2022/03/22 06:02:41;;;;;;;;;;;6.90;56.90;;;4.40;58.59;98025.22;4030867;34;20199;-83
2022/03/22 06:05:11;;;;;;;;;;;6.90;56.60;;;4.39;58.35;98024.34;4002597;34;20200;-84
2022/03/22 06:07:40;;;;;;;;;;;6.90;56.30;;;4.38;58.38;98022.69;4023406;34;19904;-83
2022/03/22 06:10:12;;;;;;;;;;;6.90;56.20;;;4.34;58.37;98032.22;4024580;34;20512;-83
2022/03/22 06:12:42;;;;;;;;;;;6.90;56.00;;;4.21;58.28;98032.84;4024617;34;20206;-84
2022/03/22 06:15:16;;;;;;;;;;;6.70;56.10;;;4.02;58.39;98033.38;4002061;34;20204;-83
2022/03/22 06:17:49;;;;;;;;;;;6.40;56.50;;;3.75;59.21;98030.22;4001304;34;19911;-84
2022/03/22 06:20:19;;;;;;;;;;;6.00;57.40;;;3.45;59.88;98033.66;4012012;34;20216;-83
2022/03/22 06:22:48;;;;;;;;;;;5.50;59.70;;;3.16;60.93;98027.06;4071926;34;19915;-84
2022/03/22 06:25:18;;;;;;;;;;;5.10;60.40;;;2.88;62.00;98041.06;4028311;34;19904;-83
2022/03/22 06:27:48;;;;;;;;;;;4.70;62.00;;;2.65;62.55;98035.56;4050703;34;19904;-83
2022/03/22 06:30:17;;;;;;;;;;;4.40;63.50;;;2.43;63.87;98029.91;4050645;34;20208;-83
2022/03/22 06:32:47;;;;;;;;;;;4.10;64.80;;;2.27;64.27;98033.50;4028027;34;20104;-83
2022/03/22 06:35:16;;;;;;;;;;;3.90;65.90;;;2.13;64.91;98024.22;4044944;34;20556;-83
2022/03/22 06:37:45;;;;;;;;;;;3.70;66.90;;;2.02;65.11;98026.44;4003767;34;19911;-83
2022/03/22 06:40:14;;;;;;;;;;;3.50;67.60;;;1.94;65.78;98030.81;4033856;34;20185;-84
2022/03/22 06:42:45;;;;;;;;;;;3.40;68.20;;;1.86;65.87;98028.13;4055023;34;19904;-83
2022/03/22 06:45:14;;;;;;;;;;;3.30;68.90;;;1.82;66.28;98032.19;4056042;34;19905;-83
2022/03/22 06:47:42;;;;;;;;;;;3.30;69.40;;;1.78;66.87;98037.09;4013219;34;20214;-83
2022/03/22 06:50:12;;;;;;;;;;;3.20;69.60;;;1.75;66.89;98034.72;4014866;34;20592;-83
2022/03/22 06:52:41;;;;;;;;;;;3.20;70.00;;;1.74;66.76;98027.66;4050214;34;19904;-83
2022/03/22 06:55:10;;;;;;;;;;;3.10;70.30;;;1.74;67.01;98033.06;4050705;34;20559;-83
2022/03/22 06:57:39;;;;;;;;;;;3.10;70.50;;;1.74;66.85;98030.34;4050387;34;19904;-83
2022/03/22 07:00:11;;;;;;;;;;;3.10;70.70;;;1.74;67.25;98019.56;4059481;34;20217;-83
2022/03/22 07:02:40;;;;;;;;;;;3.10;70.80;;;1.73;67.28;98028.66;4055753;34;19904;-83
2022/03/22 07:05:10;;;;;;;;;;;3.10;71.00;;;1.73;67.70;98023.25;4053936;34;19904;-83
2022/03/22 07:07:39;;;;;;;;;;;3.10;71.10;;;1.76;67.54;98022.91;4030473;34;20548;-83
2022/03/22 07:10:10;;;;;;;;;;;3.10;71.20;;;1.77;67.53;98030.00;4051330;34;19908;-83
2022/03/22 07:12:51;;;;;;;;;;;3.10;71.20;;;1.79;67.72;98019.03;4051436;34;20225;-83
2022/03/22 07:15:23;;;;;;;;;;;3.10;71.30;;;1.81;67.47;98025.94;4029083;34;20200;-83
2022/03/22 07:17:54;;;;;;;;;;;3.10;71.30;;;1.83;67.51;98018.53;4028313;34;19911;-83
2022/03/22 07:20:23;;;;;;;;;;;3.10;71.30;;;1.86;67.66;98011.09;4051028;34;20207;-83
2022/03/22 07:22:51;;;;;;;;;;;3.10;71.20;;;1.88;67.52;98014.44;4029428;34;20202;-83
2022/03/22 07:25:20;;;;;;;;;;;3.10;71.30;;;1.90;67.39;98018.69;4028857;34;19904;-84
2022/03/22 07:27:48;;;;;;;;;;;3.20;71.20;;;1.92;67.00;98010.41;4050982;34;20199;-83
2022/03/22 07:30:17;;;;;;;;;;;3.20;71.20;;;1.93;67.48;98012.09;4028203;34;20572;-84
2022/03/22 07:32:47;;;;;;;;;;;3.20;71.20;;;1.93;67.40;98001.28;4003827;34;19904;-83
2022/03/22 07:35:17;;;;;;;;;;;3.20;71.20;;;1.96;67.10;98011.75;4002457;34;19905;-82
2022/03/22 07:37:45;;;;;;;;;;;3.20;71.20;;;1.98;67.22;98007.03;4002152;34;19912;-83
2022/03/22 07:40:15;;;;;;;;;;;3.20;71.20;;;1.99;66.99;98000.63;4024274;34;20229;-83
2022/03/22 07:42:44;;;;;;;;;;;3.20;71.20;;;1.99;67.30;98001.44;4024888;34;19911;-83
2022/03/22 07:45:13;;;;;;;;;;;3.20;71.00;;;2.01;67.16;97995.88;4003673;34;19905;-82
2022/03/22 07:47:42;;;;;;;;;;;3.20;71.10;;;2.03;67.38;97996.53;4004531;34;20123;-83
2022/03/22 07:53:07;;;;;;;;;;;3.20;71.00;;;2.06;66.78;97988.09;4026072;34;19912;-82
2022/03/22 07:55:37;;;;;;;;;;;3.30;71.00;;;2.08;67.02;97990.63;4004167;34;20206;-82
2022/03/22 07:58:05;;;;;;;;;;;3.30;71.00;;;2.08;66.75;97983.38;4049198;34;20274;-82
2022/03/22 08:00:37;;;;;;;;;;;3.30;71.00;;;2.10;66.86;97989.47;4030747;34;20467;-83
2022/03/22 08:03:09;;;;;;;;;;;3.30;70.90;;;2.11;67.00;97984.88;4053234;34;19904;-82
2022/03/22 08:05:41;;;;;;;;;;;3.30;70.90;;;2.10;66.90;97984.06;4032759;34;20196;-82
2022/03/22 08:08:09;;;;;;;;;;;3.30;70.90;;;2.10;66.25;97980.50;4059837;34;19915;-83
2022/03/22 08:10:38;;;;;;;;;;;3.30;71.00;;;2.13;66.93;97980.97;4061103;34;20590;-82
2022/03/22 08:13:08;;;;;;;;;;;3.30;71.00;;;2.09;66.90;97976.97;4041563;34;20127;-83
2022/03/22 08:15:36;;;;;;;;;;;3.30;70.90;;;2.12;66.90;97981.16;4036743;34;20224;-83
2022/03/22 08:18:05;;;;;;;;;;;3.30;71.00;;;2.12;66.88;97978.47;4060429;34;19911;-82
2022/03/22 08:20:33;;;;;;;;;;;3.30;71.00;;;2.10;66.49;97981.34;4037869;34;20198;-83
2022/03/22 08:23:04;;;;;;;;;;;3.30;70.90;;;2.08;66.81;97977.09;4036697;34;19904;-83
2022/03/22 08:25:33;;;;;;;;;;;3.30;70.90;;;2.08;66.80;97975.28;4059374;34;20205;-83
2022/03/22 08:28:03;;;;;;;;;;;3.30;71.00;;;2.06;67.29;97968.38;4058105;34;20203;-83
2022/03/22 08:30:32;;;;;;;;;;;3.30;71.00;;;2.06;67.16;97966.50;4058858;34;19911;-83
2022/03/22 08:33:03;;;;;;;;;;;3.30;71.00;;;2.03;67.20;97974.94;4034995;34;20530;-82
2022/03/22 08:35:32;;;;;;;;;;;3.30;71.10;;;2.04;67.32;97970.38;4057661;34;19904;-83
2022/03/22 08:38:00;;;;;;;;;;;3.20;71.10;;;2.03;67.49;97964.13;4034731;34;20718;-82
2022/03/22 08:40:30;;;;;;;;;;;3.30;71.30;;;2.02;67.09;97973.25;4058694;34;19919;-83
2022/03/22 08:42:59;;;;;;;;;;;3.30;71.30;;;2.01;67.01;97971.56;4057311;34;19904;-83
2022/03/22 08:45:32;;;;;;;;;;;3.20;71.20;;;1.99;67.29;97963.63;4035518;34;19904;-82
2022/03/22 08:48:02;;;;;;;;;;;3.20;71.20;;;1.99;67.64;97960.94;4029862;34;20249;-83
2022/03/22 08:50:30;;;;;;;;;;;3.20;71.30;;;1.99;67.55;97962.81;4051690;34;19904;-82
2022/03/22 08:52:59;;;;;;;;;;;3.20;71.30;;;1.97;67.64;97960.25;4029569;34;20231;-82
2022/03/22 08:55:29;;;;;;;;;;;3.20;71.30;;;1.95;67.83;97961.47;4029705;34;19904;-83
2022/03/22 08:58:04;;;;;;;;;;;3.20;71.40;;;1.94;67.33;97963.28;4050851;34;20197;-82
2022/03/22 09:00:34;;;;;;;;;;;3.20;71.50;;;1.92;67.81;97965.34;4049321;34;20207;-82
2022/03/22 09:03:04;;;;;;;;;;;3.20;71.50;;;1.91;67.49;97960.09;4046967;34;20203;-83
2022/03/22 09:08:19;;;;;;;;;;;3.20;71.60;;;1.88;67.85;97949.63;4046379;34;20453;-83
2022/03/22 09:10:50;;;;;;;;;;;3.20;71.70;;;1.86;68.42;97940.88;4024982;34;19904;-83
2022/03/22 09:13:20;;;;;;;;;;;3.20;71.80;;;1.85;67.86;97937.31;4048368;34;20431;-83
2022/03/22 09:15:51;;;;;;;;;;;3.10;71.80;;;1.83;67.97;97933.94;4046882;34;19911;-83
2022/03/22 09:18:21;;;;;;;;;;;3.10;72.80;;;1.83;68.29;97940.22;4044878;34;20228;-83
2022/03/22 09:20:50;;;;;;;;;;;3.10;72.00;;;1.82;68.20;97925.03;4050485;34;20205;-83
2022/03/22 09:23:19;;;;;;;;;;;3.10;72.10;;;1.79;68.34;97925.34;4049873;34;19927;-83
2022/03/22 09:25:47;;;;;;;;;;;3.10;72.10;;;1.79;68.13;97925.34;4026738;34;20571;-84
2022/03/22 09:28:16;;;;;;;;;;;3.10;72.10;;;1.79;68.62;97925.34;4039239;34;19904;-83
2022/03/22 09:30:48;;;;;;;;;;;3.10;72.10;;;1.76;68.69;97928.41;4023201;34;20189;-83
2022/03/22 09:33:17;;;;;;;;;;;3.10;72.20;;;1.75;68.70;97921.31;4024231;34;20201;-83
2022/03/22 09:35:48;;;;;;;;;;;3.10;72.30;;;1.72;68.40;97910.88;4026554;34;20557;-83
2022/03/22 09:38:19;;;;;;;;;;;3.10;72.40;;;1.71;68.77;97906.47;4007471;34;23925;-83
2022/03/22 09:40:47;;;;;;;;;;;3.10;72.40;;;1.71;68.65;97903.78;4029747;34;20519;-84
2022/03/22 09:43:16;;;;;;;;;;;3.00;72.40;;;1.69;68.44;97912.03;4045816;34;20383;-83
2022/03/22 09:45:46;;;;;;;;;;;3.00;72.40;;;1.68;69.00;97906.81;4023610;34;20194;-83
2022/03/22 09:48:14;;;;;;;;;;;3.00;72.50;;;1.66;69.11;97898.03;4006754;34;20227;-83
2022/03/22 09:53:28;;;;;;;;;;;3.00;72.60;;;1.66;69.08;97892.66;4029876;34;19904;-82
2022/03/22 09:55:57;;;;;;;;;;;3.00;72.60;;;1.64;68.88;97894.66;4035248;34;20525;-83
2022/03/22 09:58:26;;;;;;;;;;;3.00;72.70;;;1.64;69.18;97883.88;4034374;34;19904;-83
2022/03/22 10:00:57;;;;;;;;;;;3.00;72.80;;;1.64;69.07;97883.88;4029116;34;20585;-83
2022/03/22 10:03:25;;;;;;;;;;;3.00;72.80;;;1.62;69.18;97883.19;4051138;34;20230;-83
2022/03/22 10:06:01;;;;;;;;;;;3.00;72.80;;;1.62;69.09;97880.50;4050829;34;19904;-83
2022/03/22 10:08:30;;;;;;;;;;;3.00;72.90;;;1.61;69.19;97876.97;4028804;34;20571;-82
2022/03/22 10:11:01;;;;;;;;;;;2.90;72.90;;;1.60;69.47;97866.34;4028519;34;19904;-82
2022/03/22 10:13:29;;;;;;;;;;;2.90;73.00;;;1.58;69.40;97863.81;4027947;34;20570;-83
2022/03/22 10:16:03;;;;;;;;;;;2.90;73.00;;;1.57;69.44;97854.03;4049160;34;20245;-83
2022/03/22 10:18:34;;;;;;;;;;;2.90;73.10;;;1.55;69.67;97847.94;4025323;34;20199;-82
2022/03/22 10:21:03;;;;;;;;;;;2.90;73.10;;;1.56;69.69;97843.41;4024674;34;19905;-83
2022/03/22 10:23:32;;;;;;;;;;;2.90;73.20;;;1.55;69.98;97842.56;4002832;34;19904;-82
2022/03/22 10:26:05;;;;;;;;;;;2.90;73.20;;;1.52;69.87;97841.06;4002859;34;20217;-82
2022/03/22 10:28:34;;;;;;;;;;;2.90;73.30;;;1.52;69.73;97841.06;4002732;34;19905;-83
2022/03/22 10:31:03;;;;;;;;;;;2.90;73.50;;;1.51;69.85;97836.66;4003432;34;20209;-83
2022/03/22 10:33:32;;;;;;;;;;;2.90;73.50;;;1.50;69.66;97834.16;4030357;34;20240;-83
2022/03/22 10:36:00;;;;;;;;;;;2.90;73.40;;;1.50;69.94;97836.84;4009933;34;20202;-83
2022/03/22 10:38:30;;;;;;;;;;;2.90;73.60;;;1.47;70.13;97821.84;4031725;34;19904;-83
2022/03/22 10:40:58;;;;;;;;;;;2.90;73.60;;;1.47;70.15;97821.84;4012583;34;20235;-83
2022/03/22 10:43:27;;;;;;;;;;;2.80;73.50;;;1.46;69.91;97817.47;4011615;34;19905;-82
2022/03/22 10:46:00;;;;;;;;;;;2.80;73.60;;;1.45;70.00;97818.47;4035893;34;19911;-82
2022/03/22 10:48:34;;;;;;;;;;;2.80;73.70;;;1.45;69.91;97813.09;4037744;34;20200;-83
2022/03/22 10:51:03;;;;;;;;;;;2.80;73.80;;;1.44;70.15;97814.09;4061071;34;20214;-82
2022/03/22 10:53:32;;;;;;;;;;;2.80;73.80;;;1.44;70.15;97810.53;4066375;34;20204;-82
2022/03/22 10:56:02;;;;;;;;;;;2.80;73.90;;;1.43;70.73;97798.06;4037200;34;20243;-83
2022/03/22 10:58:31;;;;;;;;;;;2.80;73.90;;;1.42;70.20;97789.13;4011640;34;20208;-83
2022/03/22 11:01:02;;;;;;;;;;;2.80;73.90;;;1.42;70.31;97793.69;4033507;34;19908;-82
2022/03/22 11:03:33;;;;;;;;;;;2.80;74.00;;;1.41;70.79;97787.44;4011495;34;20217;-82
2022/03/22 11:06:04;;;;;;;;;;;2.80;74.00;;;1.41;70.26;97776.66;4032791;34;19904;-82
2022/03/22 11:08:32;;;;;;;;;;;2.80;74.10;;;1.40;70.23;97774.97;4033596;34;19905;-82
2022/03/22 11:11:01;;;;;;;;;;;2.80;74.10;;;1.40;70.71;97774.97;4032892;34;20251;-82
2022/03/22 11:13:29;;;;;;;;;;;2.80;74.20;;;1.39;70.53;97767.88;4032884;34;20128;-82
2022/03/22 11:15:59;;;;;;;;;;;2.80;74.20;;;1.39;70.43;97767.88;4030245;34;20084;-82
2022/03/22 11:18:29;;;;;;;;;;;2.80;74.20;;;1.38;70.11;97761.66;4057482;34;20221;-82
2022/03/22 11:21:00;;;;;;;;;;;2.70;74.30;;;1.38;70.66;97760.81;4036659;34;19911;-82
2022/03/22 11:23:29;;;;;;;;;;;2.80;74.40;;;1.36;70.85;97758.28;4036444;34;20490;-82
2022/03/22 11:26:08;;;;;;;;;;;2.70;74.40;;;1.36;70.55;97752.03;4036295;34;20560;-82
2022/03/22 11:28:36;;;;;;;;;;;2.70;74.40;;;1.36;70.78;97743.94;4034907;34;20192;-82
2022/03/22 11:31:05;;;;;;;;;;;2.70;74.50;;;1.35;70.80;97750.38;4055675;34;19904;-82
2022/03/22 11:36:24;;;;;;;;;;;2.70;74.60;;;1.35;70.93;97739.59;4034751;34;19911;-82
2022/03/22 11:38:54;;;;;;;;;;;2.70;74.70;;;1.35;70.70;97734.19;4058962;34;20229;-82
2022/03/22 11:44:20;;;;;;;;;;;2.70;74.70;;;1.34;71.15;97732.50;4056961;34;20607;-82
2022/03/22 11:47:01;;;;;;;;;;;2.70;74.70;;;1.34;70.83;97724.41;4037798;34;20068;-82
2022/03/22 11:49:29;;;;;;;;;;;2.70;74.70;;;1.34;71.21;97727.09;4060016;34;19927;-82
2022/03/22 11:52:10;;;;;;;;;;;2.70;74.80;;;1.34;70.77;97721.72;4039503;34;20231;-82
2022/03/22 11:54:38;;;;;;;;;;;2.70;74.90;;;1.32;71.13;97718.34;4038966;34;20190;-82
2022/03/22 11:57:08;;;;;;;;;;;2.70;75.00;;;1.32;70.91;97712.94;4035997;34;20250;-82
2022/03/22 11:59:41;;;;;;;;;;;2.70;74.90;;;1.32;71.23;97708.38;4034268;34;19905;-82
2022/03/22 12:02:15;;;;;;;;;;;2.70;75.00;;;1.32;70.99;97707.56;4034231;34;19911;-82
2022/03/22 12:04:44;;;;;;;;;;;2.70;75.00;;;1.31;71.24;97703.16;4012965;34;20448;-82
2022/03/22 12:07:14;;;;;;;;;;;2.70;75.10;;;1.32;71.27;97696.75;4011399;34;19905;-82
2022/03/22 12:09:43;;;;;;;;;;;2.70;75.10;;;1.32;71.36;97702.16;4006607;34;19904;-82
2022/03/22 12:12:15;;;;;;;;;;;2.60;75.00;;;1.31;71.18;97690.50;4025727;34;19916;-82
2022/03/22 12:14:45;;;;;;;;;;;2.60;75.00;;;1.30;71.46;97686.13;4025253;34;19905;-82
2022/03/22 12:17:14;;;;;;;;;;;2.60;75.00;;;1.31;71.23;97687.81;4048148;34;19904;-82